Track Попова Анна 4242

Time Latitude Longitude Accuracy (66% radius in meters) Altitude (meters) Speed (km/hour) Bearing (degrees) Battery (%) GPS flag
10:21:58 51.778782 39.293715 6 102.02508200049 0.0082800155505538 124.65273284912 79 1 delete
10:21:49 51.778774 39.293744 6 102.35085907966 0.097072325646877 153.17028808594 79 1 delete
10:21:43 51.778778 39.293742 4 102.60862890793 0.044999025762081 153.17028808594 79 1 delete
10:21:37 51.778780 39.293740 4 102.66930297014 0.036165326833725 153.17028808594 79 1 delete
10:21:31 51.778783 39.293742 4 102.7223588146 0.012550126761198 153.17028808594 79 1 delete
10:21:25 51.778785 39.293752 6 102.78287052011 0.017635831609368 153.17028808594 79 1 delete
10:21:19 51.778780 39.293757 6 102.97087034544 0.02336473762989 153.17028808594 79 1 delete
10:21:10 51.778778 39.293757 6 103.19144264428 0.029893876984715 153.17028808594 79 1 delete
10:21:04 51.778776 39.293761 6 103.24543708545 0.014224621467292 153.17028808594 79 1 delete
10:20:58 51.778773 39.293767 6 103.30508308484 0.026678303256631 153.17028808594 79 1 delete
10:20:46 51.778760 39.293757 6 103.41359537286 0.029689621180296 153.17028808594 79 1 delete
10:20:40 51.778758 39.293748 4 103.43033744901 0.030301347374916 153.17028808594 79 1 delete
10:20:34 51.778757 39.293740 6 103.42997937554 0.05568590387702 153.17028808594 79 1 delete
10:20:31 51.778756 39.293737 6 103.42251329708 0.012121137231588 153.17028808594 79 1 delete
10:20:28 51.778760 39.293730 6 103.41261595758 0.040094885975122 153.17028808594 79 1 delete
10:20:19 51.778774 39.293719 6 103.36813064735 0.034776642918587 153.17028808594 79 1 delete
10:20:13 51.778788 39.293726 6 103.32631447627 0.027668714523315 153.17028808594 79 1 delete
10:20:07 51.778785 39.293727 4 103.30053684091 0.034824509173632 153.17028808594 79 1 delete
10:20:04 51.778786 39.293728 6 103.27834145527 0.034902568906546 153.17028808594 79 1 delete
10:19:58 51.778768 39.293735 6 103.23260346591 0.084095306694508 153.17028808594 79 1 delete
10:19:49 51.778759 39.293724 6 103.15163496337 0.092093721032143 153.17028808594 79 1 delete
10:19:43 51.778766 39.293717 6 103.09211049802 0.015525789000094 153.17028808594 79 1 delete
10:19:37 51.778776 39.293708 6 103.03291363865 0.039952363818884 153.17028808594 79 1 delete
10:19:28 51.778794 39.293703 6 102.76577306226 0.093638591468334 153.17028808594 79 1 delete
10:19:22 51.778792 39.293698 4 102.62997002183 0.026571750640869 153.17028808594 79 1 delete
10:19:16 51.778798 39.293690 6 102.55585404309 0.08577574044466 153.17028808594 79 1 delete
10:19:07 51.778804 39.293685 6 102.47064336901 0.015920262783766 153.17028808594 79 1 delete
10:19:01 51.778804 39.293688 4 102.40629510975 0.054540008306503 153.17028808594 79 1 delete
10:18:55 51.778801 39.293700 4 102.34143464471 0.031088201329112 153.17028808594 79 1 delete
10:18:46 51.778792 39.293709 8 102.27203095911 0.064609825611115 153.17028808594 79 1 delete
10:18:43 51.778790 39.293712 6 102.24200299322 0.052199456840754 153.17028808594 79 1 delete
10:18:40 51.778786 39.293717 4 102.11500858068 0.043718710541725 153.17028808594 79 1 delete
10:18:31 51.778776 39.293728 6 102.00499317571 0.0086451815441251 153.17028808594 79 1 delete
10:18:25 51.778774 39.293730 4 101.93119155234 0.017216587439179 153.17028808594 79 1 delete
10:18:19 51.778775 39.293728 4 101.86294895274 0.01267961692065 153.17028808594 79 1 delete
10:18:13 51.778774 39.293728 4 101.80405638427 0.012759900651872 153.17028808594 79 1 delete
10:18:04 51.778773 39.293731 6 101.73942184719 0.040872592478991 153.17028808594 79 1 delete
10:17:58 51.778775 39.293732 6 101.69827329351 0.042690254747868 153.17028808594 79 1 delete
10:17:52 51.778775 39.293730 4 101.66474725885 0.055904552340508 153.17028808594 79 1 delete
10:17:46 51.778774 39.293733 4 101.64441778279 0.078451469540596 153.17028808594 79 1 delete
10:17:40 51.778775 39.293733 6 101.63657576602 0.021341057494283 153.17028808594 79 1 delete
10:17:34 51.778775 39.293731 6 101.64204899486 0.019866552203894 153.17028808594 79 1 delete
10:17:25 51.778771 39.293735 6 101.66741242297 0.018570132553577 153.17028808594 79 1 delete
10:17:19 51.778765 39.293742 4 101.73995809018 0.025908287614584 153.17028808594 79 1 delete
10:17:13 51.778758 39.293749 4 101.75949434876 0.019430024549365 153.17028808594 79 1 delete
10:17:04 51.778755 39.293756 4 101.80220631554 0.022901367396116 153.17028808594 79 1 delete
10:16:58 51.778755 39.293757 4 101.82780964265 0.013957762159407 153.17028808594 79 1 delete
10:16:52 51.778753 39.293760 4 101.8445432896 0.023894710466266 153.17028808594 79 1 delete
10:16:46 51.778755 39.293762 4 101.86939653063 0.015173646621406 153.17028808594 79 1 delete
10:16:37 51.778748 39.293758 4 101.93631470178 0.048459526151419 153.17028808594 79 1 delete